sensor_id;sensor_type;location;lat;lon;timestamp;pressure;altitude;pressure_sealevel;temperature;humidity
19112;BME280;9688;51.906;8.376;2022-12-08T00:00:35;100124.28;;;4.66;95.89
19112;BME280;9688;51.906;8.376;2022-12-08T00:03:20;100120.81;;;4.66;96.29
19112;BME280;9688;51.906;8.376;2022-12-08T00:06:14;100117.31;;;4.65;95.81
19112;BME280;9688;51.906;8.376;2022-12-08T00:09:22;100104.25;;;4.64;96.38
19112;BME280;9688;51.906;8.376;2022-12-08T00:12:10;100101.72;;;4.61;95.91
19112;BME280;9688;51.906;8.376;2022-12-08T00:14:57;100097.44;;;4.57;95.84
19112;BME280;9688;51.906;8.376;2022-12-08T00:17:43;100100.03;;;4.57;96.95
19112;BME280;9688;51.906;8.376;2022-12-08T00:20:28;100098.34;;;4.54;96.63
19112;BME280;9688;51.906;8.376;2022-12-08T00:23:13;100099.28;;;4.52;95.98
19112;BME280;9688;51.906;8.376;2022-12-08T00:26:01;100090.63;;;4.50;95.82
19112;BME280;9688;51.906;8.376;2022-12-08T00:28:47;100096.84;;;4.44;96.26
19112;BME280;9688;51.906;8.376;2022-12-08T00:31:34;100083.09;;;4.34;96.50
19112;BME280;9688;51.906;8.376;2022-12-08T00:34:19;100078.91;;;4.27;96.92
19112;BME280;9688;51.906;8.376;2022-12-08T00:37:05;100091.09;;;4.27;97.46
19112;BME280;9688;51.906;8.376;2022-12-08T00:39:50;100081.47;;;4.29;97.60
19112;BME280;9688;51.906;8.376;2022-12-08T00:42:36;100078.84;;;4.30;97.31
19112;BME280;9688;51.906;8.376;2022-12-08T00:45:21;100081.47;;;4.30;96.47
19112;BME280;9688;51.906;8.376;2022-12-08T00:48:08;100081.41;;;4.32;97.73
19112;BME280;9688;51.906;8.376;2022-12-08T00:50:54;100081.38;;;4.33;96.70
19112;BME280;9688;51.906;8.376;2022-12-08T00:53:39;100087.38;;;4.38;97.46
19112;BME280;9688;51.906;8.376;2022-12-08T00:56:25;100081.16;;;4.44;96.76
19112;BME280;9688;51.906;8.376;2022-12-08T00:59:10;100073.19;;;4.48;96.53
19112;BME280;9688;51.906;8.376;2022-12-08T01:01:56;100070.50;;;4.52;96.59
19112;BME280;9688;51.906;8.376;2022-12-08T01:04:43;100073.03;;;4.56;97.22
19112;BME280;9688;51.906;8.376;2022-12-08T01:07:29;100078.19;;;4.59;96.33
19112;BME280;9688;51.906;8.376;2022-12-08T01:10:14;100068.53;;;4.63;96.63
19112;BME280;9688;51.906;8.376;2022-12-08T01:13:00;100067.56;;;4.65;96.96
19112;BME280;9688;51.906;8.376;2022-12-08T01:15:54;100066.63;;;4.68;96.33
19112;BME280;9688;51.906;8.376;2022-12-08T01:18:40;100072.75;;;4.68;96.42
19112;BME280;9688;51.906;8.376;2022-12-08T01:21:27;100078.00;;;4.68;96.91
19112;BME280;9688;51.906;8.376;2022-12-08T01:24:15;100071.88;;;4.68;97.41
19112;BME280;9688;51.906;8.376;2022-12-08T01:27:01;100074.53;;;4.66;96.49
19112;BME280;9688;51.906;8.376;2022-12-08T01:29:46;100084.09;;;4.67;96.39
19112;BME280;9688;51.906;8.376;2022-12-08T01:32:31;100085.78;;;4.70;97.47
19112;BME280;9688;51.906;8.376;2022-12-08T01:35:17;100083.25;;;4.67;97.00
19112;BME280;9688;51.906;8.376;2022-12-08T01:38:04;100075.41;;;4.65;96.43
19112;BME280;9688;51.906;8.376;2022-12-08T01:40:49;100072.78;;;4.67;97.57
19112;BME280;9688;51.906;8.376;2022-12-08T01:43:49;100077.09;;;4.69;97.42
19112;BME280;9688;51.906;8.376;2022-12-08T01:46:40;100077.00;;;4.73;97.03
19112;BME280;9688;51.906;8.376;2022-12-08T01:49:28;100076.97;;;4.74;96.61
19112;BME280;9688;51.906;8.376;2022-12-08T01:52:17;100080.38;;;4.78;97.40
19112;BME280;9688;51.906;8.376;2022-12-08T01:55:10;100075.06;;;4.82;96.39
19112;BME280;9688;51.906;8.376;2022-12-08T01:58:00;100069.69;;;4.87;95.92
19112;BME280;9688;51.906;8.376;2022-12-08T02:00:48;100061.81;;;4.88;96.88
19112;BME280;9688;51.906;8.376;2022-12-08T02:03:38;100063.56;;;4.88;95.92
19112;BME280;9688;51.906;8.376;2022-12-08T02:06:26;100058.34;;;4.86;96.74
19112;BME280;9688;51.906;8.376;2022-12-08T02:09:13;100046.19;;;4.84;96.64
19112;BME280;9688;51.906;8.376;2022-12-08T02:12:00;100045.44;;;4.79;96.04
19112;BME280;9688;51.906;8.376;2022-12-08T02:14:46;100046.41;;;4.75;97.15
19112;BME280;9688;51.906;8.376;2022-12-08T02:17:43;100044.00;;;4.65;96.55
19112;BME280;9688;51.906;8.376;2022-12-08T02:20:46;100043.34;;;4.57;96.86
19112;BME280;9688;51.906;8.376;2022-12-08T02:23:40;100038.13;;;4.56;97.42
19112;BME280;9688;51.906;8.376;2022-12-08T02:27:10;100033.84;;;4.52;96.59
19112;BME280;9688;51.906;8.376;2022-12-08T02:30:19;100025.34;;;4.43;96.99
19112;BME280;9688;51.906;8.376;2022-12-08T02:36:42;100021.69;;;4.51;97.02
19112;BME280;9688;51.906;8.376;2022-12-08T02:39:36;100021.50;;;4.58;96.36
19112;BME280;9688;51.906;8.376;2022-12-08T02:42:30;100019.63;;;4.63;96.28
19112;BME280;9688;51.906;8.376;2022-12-08T02:45:21;100017.81;;;4.67;97.48
19112;BME280;9688;51.906;8.376;2022-12-08T02:48:10;100018.56;;;4.70;96.43
19112;BME280;9688;51.906;8.376;2022-12-08T02:50:56;100026.34;;;4.74;96.67
19112;BME280;9688;51.906;8.376;2022-12-08T02:53:43;100021.94;;;4.77;96.22
19112;BME280;9688;51.906;8.376;2022-12-08T02:56:51;100019.22;;;4.80;97.20
19112;BME280;9688;51.906;8.376;2022-12-08T02:59:55;100015.69;;;4.81;96.81
19112;BME280;9688;51.906;8.376;2022-12-08T03:02:59;100012.22;;;4.81;96.83
19112;BME280;9688;51.906;8.376;2022-12-08T03:05:56;100012.31;;;4.78;97.33
19112;BME280;9688;51.906;8.376;2022-12-08T03:08:50;100002.66;;;4.80;97.08
19112;BME280;9688;51.906;8.376;2022-12-08T03:11:42;99998.19;;;4.83;96.88
19112;BME280;9688;51.906;8.376;2022-12-08T03:14:30;100001.59;;;4.87;96.93
19112;BME280;9688;51.906;8.376;2022-12-08T03:17:20;99985.97;;;4.84;95.98
19112;BME280;9688;51.906;8.376;2022-12-08T03:20:10;99991.28;;;4.81;96.57
19112;BME280;9688;51.906;8.376;2022-12-08T03:22:59;99986.91;;;4.81;96.58
19112;BME280;9688;51.906;8.376;2022-12-08T03:25:52;99977.28;;;4.82;96.89
19112;BME280;9688;51.906;8.376;2022-12-08T03:28:40;99974.53;;;4.88;96.25
19112;BME280;9688;51.906;8.376;2022-12-08T03:31:27;99964.84;;;4.90;95.84
19112;BME280;9688;51.906;8.376;2022-12-08T03:34:18;99963.25;;;4.84;95.82
19112;BME280;9688;51.906;8.376;2022-12-08T03:37:03;99964.09;;;4.85;97.13
19112;BME280;9688;51.906;8.376;2022-12-08T03:39:49;99953.53;;;4.89;97.19
19112;BME280;9688;51.906;8.376;2022-12-08T03:42:36;99956.03;;;4.94;96.98
19112;BME280;9688;51.906;8.376;2022-12-08T03:45:21;99955.19;;;4.94;96.29
19112;BME280;9688;51.906;8.376;2022-12-08T03:48:07;99944.63;;;4.97;96.64
19112;BME280;9688;51.906;8.376;2022-12-08T03:50:52;99941.09;;;4.98;96.42
19112;BME280;9688;51.906;8.376;2022-12-08T03:53:38;99932.31;;;4.99;96.66
19112;BME280;9688;51.906;8.376;2022-12-08T03:56:27;99927.06;;;5.00;95.65
19112;BME280;9688;51.906;8.376;2022-12-08T03:59:14;99919.09;;;5.03;95.81
19112;BME280;9688;51.906;8.376;2022-12-08T04:02:00;99923.38;;;5.07;96.04
19112;BME280;9688;51.906;8.376;2022-12-08T04:04:45;99912.91;;;5.07;95.97
19112;BME280;9688;51.906;8.376;2022-12-08T04:07:31;99907.59;;;5.09;95.44
19112;BME280;9688;51.906;8.376;2022-12-08T04:10:17;99911.06;;;5.09;96.57
19112;BME280;9688;51.906;8.376;2022-12-08T04:13:03;99911.06;;;5.09;96.32
19112;BME280;9688;51.906;8.376;2022-12-08T04:15:50;99910.97;;;5.14;95.81
19112;BME280;9688;51.906;8.376;2022-12-08T04:18:36;99905.63;;;5.17;95.99
19112;BME280;9688;51.906;8.376;2022-12-08T04:21:21;99906.47;;;5.19;95.98
19112;BME280;9688;51.906;8.376;2022-12-08T04:24:07;99894.25;;;5.18;95.45
19112;BME280;9688;51.906;8.376;2022-12-08T04:26:53;99894.31;;;5.17;95.66
19112;BME280;9688;51.906;8.376;2022-12-08T04:29:38;99901.34;;;5.14;96.16
19112;BME280;9688;51.906;8.376;2022-12-08T04:32:25;99896.94;;;5.15;96.44
19112;BME280;9688;51.906;8.376;2022-12-08T04:35:10;99888.28;;;5.13;96.08
19112;BME280;9688;51.906;8.376;2022-12-08T04:37:56;99895.25;;;5.14;96.93
19112;BME280;9688;51.906;8.376;2022-12-08T04:40:42;99882.16;;;5.12;96.76
19112;BME280;9688;51.906;8.376;2022-12-08T04:43:27;99888.28;;;5.13;96.15
19112;BME280;9688;51.906;8.376;2022-12-08T04:46:13;99886.56;;;5.12;96.48
19112;BME280;9688;51.906;8.376;2022-12-08T04:49:00;99886.53;;;5.13;96.45
19112;BME280;9688;51.906;8.376;2022-12-08T04:51:45;99879.50;;;5.16;97.03
19112;BME280;9688;51.906;8.376;2022-12-08T04:54:31;99882.97;;;5.16;96.18
19112;BME280;9688;51.906;8.376;2022-12-08T04:57:17;99890.78;;;5.18;97.51
19112;BME280;9688;51.906;8.376;2022-12-08T05:00:06;99884.66;;;5.17;96.74
19112;BME280;9688;51.906;8.376;2022-12-08T05:02:52;99883.81;;;5.17;96.87
19112;BME280;9688;51.906;8.376;2022-12-08T05:05:39;99871.69;;;5.12;97.95
19112;BME280;9688;51.906;8.376;2022-12-08T05:08:25;99875.19;;;5.13;97.95
19112;BME280;9688;51.906;8.376;2022-12-08T05:11:11;99873.44;;;5.13;97.04
19112;BME280;9688;51.906;8.376;2022-12-08T05:13:56;99877.84;;;5.11;97.91
19112;BME280;9688;51.906;8.376;2022-12-08T05:16:42;99884.00;;;5.10;97.92
19112;BME280;9688;51.906;8.376;2022-12-08T05:19:27;99883.19;;;5.08;96.92
19112;BME280;9688;51.906;8.376;2022-12-08T05:22:14;99888.69;;;4.99;98.08
19112;BME280;9688;51.906;8.376;2022-12-08T05:25:00;99880.09;;;4.94;97.41
19112;BME280;9688;51.906;8.376;2022-12-08T05:27:45;99873.25;;;4.88;98.46
19112;BME280;9688;51.906;8.376;2022-12-08T05:30:31;99876.91;;;4.83;97.71
19112;BME280;9688;51.906;8.376;2022-12-08T05:33:16;99877.84;;;4.80;98.64
19112;BME280;9688;51.906;8.376;2022-12-08T05:36:02;99864.78;;;4.79;97.88
19112;BME280;9688;51.906;8.376;2022-12-08T05:38:49;99857.84;;;4.78;98.45
19112;BME280;9688;51.906;8.376;2022-12-08T05:41:34;99853.50;;;4.77;98.64
19112;BME280;9688;51.906;8.376;2022-12-08T05:44:20;99865.78;;;4.75;98.31
19112;BME280;9688;51.906;8.376;2022-12-08T05:47:05;99848.31;;;4.75;98.05
19112;BME280;9688;51.906;8.376;2022-12-08T05:49:50;99841.28;;;4.76;98.46
19112;BME280;9688;51.906;8.376;2022-12-08T05:52:35;99843.03;;;4.77;99.11
19112;BME280;9688;51.906;8.376;2022-12-08T05:55:22;99844.78;;;4.76;98.74
19112;BME280;9688;51.906;8.376;2022-12-08T05:58:11;99840.44;;;4.75;99.23
19112;BME280;9688;51.906;8.376;2022-12-08T06:00:57;99847.34;;;4.78;98.75
19112;BME280;9688;51.906;8.376;2022-12-08T06:03:43;99847.28;;;4.81;98.57
19112;BME280;9688;51.906;8.376;2022-12-08T06:06:30;99848.19;;;4.80;99.32
19112;BME280;9688;51.906;8.376;2022-12-08T06:09:16;99842.88;;;4.83;98.43
19112;BME280;9688;51.906;8.376;2022-12-08T06:12:03;99842.78;;;4.86;98.83
19112;BME280;9688;51.906;8.376;2022-12-08T06:14:48;99836.59;;;4.88;98.98
19112;BME280;9688;51.906;8.376;2022-12-08T06:17:34;99833.91;;;4.90;99.56
19112;BME280;9688;51.906;8.376;2022-12-08T06:20:20;99839.13;;;4.91;99.47
19112;BME280;9688;51.906;8.376;2022-12-08T06:23:05;99832.19;;;4.90;99.66
19112;BME280;9688;51.906;8.376;2022-12-08T06:25:50;99826.97;;;4.89;98.95
19112;BME280;9688;51.906;8.376;2022-12-08T06:28:38;99832.25;;;4.87;99.55
19112;BME280;9688;51.906;8.376;2022-12-08T06:31:25;99830.41;;;4.91;98.73
19112;BME280;9688;51.906;8.376;2022-12-08T06:34:11;99827.88;;;4.88;99.54
19112;BME280;9688;51.906;8.376;2022-12-08T06:36:56;99829.72;;;4.84;99.84
19112;BME280;9688;51.906;8.376;2022-12-08T06:39:44;99832.31;;;4.86;98.98
19112;BME280;9688;51.906;8.376;2022-12-08T06:42:30;99829.63;;;4.87;100.00
19112;BME280;9688;51.906;8.376;2022-12-08T06:45:30;99825.28;;;4.88;100.00
19112;BME280;9688;51.906;8.376;2022-12-08T06:48:16;99827.78;;;4.91;99.78
19112;BME280;9688;51.906;8.376;2022-12-08T06:51:07;99826.03;;;4.91;100.00
19112;BME280;9688;51.906;8.376;2022-12-08T06:53:55;99831.22;;;4.93;99.35
19112;BME280;9688;51.906;8.376;2022-12-08T06:56:41;99824.25;;;4.92;100.00
19112;BME280;9688;51.906;8.376;2022-12-08T06:59:26;99830.41;;;4.91;100.00
19112;BME280;9688;51.906;8.376;2022-12-08T07:02:14;99825.19;;;4.91;100.00
19112;BME280;9688;51.906;8.376;2022-12-08T07:05:00;99836.53;;;4.90;99.26
19112;BME280;9688;51.906;8.376;2022-12-08T07:07:46;99836.53;;;4.90;100.00
19112;BME280;9688;51.906;8.376;2022-12-08T07:10:32;99835.66;;;4.91;99.97
19112;BME280;9688;51.906;8.376;2022-12-08T07:13:18;99839.94;;;4.94;99.34
19112;BME280;9688;51.906;8.376;2022-12-08T07:16:05;99832.09;;;4.94;99.90
19112;BME280;9688;51.906;8.376;2022-12-08T07:18:52;99834.72;;;4.94;99.37
19112;BME280;9688;51.906;8.376;2022-12-08T07:21:38;99839.00;;;4.96;99.38
19112;BME280;9688;51.906;8.376;2022-12-08T07:24:23;99842.50;;;4.95;100.00
19112;BME280;9688;51.906;8.376;2022-12-08T07:27:10;99844.34;;;4.91;100.00
19112;BME280;9688;51.906;8.376;2022-12-08T07:29:56;99842.56;;;4.94;99.48
19112;BME280;9688;51.906;8.376;2022-12-08T07:32:42;99841.75;;;4.91;99.69
19112;BME280;9688;51.906;8.376;2022-12-08T07:35:30;99846.97;;;4.91;99.84
19112;BME280;9688;51.906;8.376;2022-12-08T07:38:16;99846.03;;;4.94;99.75
19112;BME280;9688;51.906;8.376;2022-12-08T07:41:01;99842.38;;;5.00;100.00
19112;BME280;9688;51.906;8.376;2022-12-08T07:43:48;99854.56;;;5.01;100.00
19112;BME280;9688;51.906;8.376;2022-12-08T07:46:34;99849.41;;;4.99;99.51
19112;BME280;9688;51.906;8.376;2022-12-08T07:49:20;99844.19;;;4.98;99.74
19112;BME280;9688;51.906;8.376;2022-12-08T07:52:09;99839.78;;;4.98;99.60
19112;BME280;9688;51.906;8.376;2022-12-08T07:54:57;99838.81;;;5.02;99.66
19112;BME280;9688;51.906;8.376;2022-12-08T07:57:44;99837.00;;;5.04;99.40
19112;BME280;9688;51.906;8.376;2022-12-08T08:00:29;99844.72;;;5.09;99.87
19112;BME280;9688;51.906;8.376;2022-12-08T08:03:15;99843.16;;;5.03;99.83
19112;BME280;9688;51.906;8.376;2022-12-08T08:06:04;99843.28;;;4.99;99.48
19112;BME280;9688;51.906;8.376;2022-12-08T08:08:52;99848.56;;;4.97;99.71
19112;BME280;9688;51.906;8.376;2022-12-08T08:11:37;99846.97;;;4.91;99.60
19112;BME280;9688;51.906;8.376;2022-12-08T08:14:23;99840.81;;;4.92;100.00
19112;BME280;9688;51.906;8.376;2022-12-08T08:17:09;99841.75;;;4.91;99.87
19112;BME280;9688;51.906;8.376;2022-12-08T08:19:56;99838.28;;;4.91;100.00
19112;BME280;9688;51.906;8.376;2022-12-08T08:22:41;99845.22;;;4.92;100.00
19112;BME280;9688;51.906;8.376;2022-12-08T08:25:28;99844.28;;;4.95;99.51
19112;BME280;9688;51.906;8.376;2022-12-08T08:28:14;99851.38;;;4.91;99.95
19112;BME280;9688;51.906;8.376;2022-12-08T08:31:00;99854.94;;;4.88;100.00
19112;BME280;9688;51.906;8.376;2022-12-08T08:33:45;99853.19;;;4.87;99.74
19112;BME280;9688;51.906;8.376;2022-12-08T08:36:34;99848.75;;;4.91;100.00
19112;BME280;9688;51.906;8.376;2022-12-08T08:39:22;99852.09;;;4.96;99.37
19112;BME280;9688;51.906;8.376;2022-12-08T08:42:10;99858.00;;;5.03;99.67
19112;BME280;9688;51.906;8.376;2022-12-08T08:44:56;99854.38;;;5.07;99.41
19112;BME280;9688;51.906;8.376;2022-12-08T08:47:42;99859.56;;;5.10;99.95
19112;BME280;9688;51.906;8.376;2022-12-08T08:50:28;99863.91;;;5.11;100.00
19112;BME280;9688;51.906;8.376;2022-12-08T08:53:13;99859.47;;;5.13;99.54
19112;BME280;9688;51.906;8.376;2022-12-08T08:55:59;99858.53;;;5.16;99.97
19112;BME280;9688;51.906;8.376;2022-12-08T08:58:50;99856.69;;;5.19;99.70
19112;BME280;9688;51.906;8.376;2022-12-08T09:01:37;99854.78;;;5.24;99.08
19112;BME280;9688;51.906;8.376;2022-12-08T09:04:23;99857.34;;;5.26;99.34
19112;BME280;9688;51.906;8.376;2022-12-08T09:07:10;99858.13;;;5.29;99.50
19112;BME280;9688;51.906;8.376;2022-12-08T09:09:56;99863.38;;;5.29;99.64
19112;BME280;9688;51.906;8.376;2022-12-08T09:12:43;99862.41;;;5.32;99.80
19112;BME280;9688;51.906;8.376;2022-12-08T09:15:33;99864.22;;;5.30;99.85
19112;BME280;9688;51.906;8.376;2022-12-08T09:18:19;99868.56;;;5.31;99.85
19112;BME280;9688;51.906;8.376;2022-12-08T09:21:07;99864.97;;;5.35;99.31
19112;BME280;9688;51.906;8.376;2022-12-08T09:23:55;99863.91;;;5.41;99.23
19112;BME280;9688;51.906;8.376;2022-12-08T09:26:42;99876.94;;;5.44;99.09
19112;BME280;9688;51.906;8.376;2022-12-08T09:29:28;99876.97;;;5.42;99.68
19112;BME280;9688;51.906;8.376;2022-12-08T09:32:16;99874.31;;;5.44;98.99
19112;BME280;9688;51.906;8.376;2022-12-08T09:35:02;99873.31;;;5.48;99.46
19112;BME280;9688;51.906;8.376;2022-12-08T09:37:54;99864.69;;;5.44;98.96
19112;BME280;9688;51.906;8.376;2022-12-08T09:40:46;99870.84;;;5.43;99.62
19112;BME280;9688;51.906;8.376;2022-12-08T09:43:49;99872.56;;;5.43;98.99
19112;BME280;9688;51.906;8.376;2022-12-08T09:46:39;99868.91;;;5.48;99.74
19112;BME280;9688;51.906;8.376;2022-12-08T09:49:36;99867.13;;;5.50;99.18
19112;BME280;9688;51.906;8.376;2022-12-08T09:52:26;99868.88;;;5.50;98.63
19112;BME280;9688;51.906;8.376;2022-12-08T09:55:18;99879.38;;;5.50;99.06
19112;BME280;9688;51.906;8.376;2022-12-08T09:58:13;99876.75;;;5.50;99.22
19112;BME280;9688;51.906;8.376;2022-12-08T10:01:02;99868.91;;;5.48;99.61
19112;BME280;9688;51.906;8.376;2022-12-08T10:03:48;99869.84;;;5.46;98.38
19112;BME280;9688;51.906;8.376;2022-12-08T10:06:41;99872.63;;;5.41;98.79
19112;BME280;9688;51.906;8.376;2022-12-08T10:09:37;99866.59;;;5.37;99.27
19112;BME280;9688;51.906;8.376;2022-12-08T10:12:38;99868.44;;;5.35;98.80
19112;BME280;9688;51.906;8.376;2022-12-08T10:15:39;99866.69;;;5.34;99.26
19112;BME280;9688;51.906;8.376;2022-12-08T10:18:28;99864.91;;;5.36;99.25
19112;BME280;9688;51.906;8.376;2022-12-08T10:21:16;99863.97;;;5.37;99.12
19112;BME280;9688;51.906;8.376;2022-12-08T10:24:11;99860.41;;;5.40;99.38
19112;BME280;9688;51.906;8.376;2022-12-08T10:26:58;99861.25;;;5.42;99.37
19112;BME280;9688;51.906;8.376;2022-12-08T10:29:47;99866.47;;;5.42;99.70
19112;BME280;9688;51.906;8.376;2022-12-08T10:32:34;99864.63;;;5.46;99.36
19112;BME280;9688;51.906;8.376;2022-12-08T10:35:21;99859.63;;;5.38;99.22
19112;BME280;9688;51.906;8.376;2022-12-08T10:38:16;99851.91;;;5.32;98.94
19112;BME280;9688;51.906;8.376;2022-12-08T10:41:06;99854.41;;;5.36;99.47
19112;BME280;9688;51.906;8.376;2022-12-08T10:43:59;99856.94;;;5.40;98.87
19112;BME280;9688;51.906;8.376;2022-12-08T10:46:46;99859.44;;;5.44;99.44
19112;BME280;9688;51.906;8.376;2022-12-08T10:49:32;99857.66;;;5.45;99.32
19112;BME280;9688;51.906;8.376;2022-12-08T10:52:22;99859.38;;;5.46;98.65
19112;BME280;9688;51.906;8.376;2022-12-08T10:55:15;99851.38;;;5.50;98.46
19112;BME280;9688;51.906;8.376;2022-12-08T10:58:03;99851.28;;;5.53;98.36
19112;BME280;9688;51.906;8.376;2022-12-08T11:00:51;99844.44;;;5.49;98.26
19112;BME280;9688;51.906;8.376;2022-12-08T11:03:43;99852.44;;;5.45;98.34
19112;BME280;9688;51.906;8.376;2022-12-08T11:06:31;99853.47;;;5.39;97.99
19112;BME280;9688;51.906;8.376;2022-12-08T11:09:34;99846.44;;;5.41;97.88
19112;BME280;9688;51.906;8.376;2022-12-08T11:12:21;99846.16;;;5.50;98.59
19112;BME280;9688;51.906;8.376;2022-12-08T11:15:13;99846.97;;;5.52;97.36
19112;BME280;9688;51.906;8.376;2022-12-08T11:18:06;99851.09;;;5.59;97.46
19112;BME280;9688;51.906;8.376;2022-12-08T11:20:59;99845.69;;;5.66;97.82
19112;BME280;9688;51.906;8.376;2022-12-08T11:23:47;99846.56;;;5.65;97.55
19112;BME280;9688;51.906;8.376;2022-12-08T11:26:34;99846.53;;;5.66;97.42
19112;BME280;9688;51.906;8.376;2022-12-08T11:29:21;99847.28;;;5.70;97.74
19112;BME280;9688;51.906;8.376;2022-12-08T11:32:11;99849.97;;;5.68;97.57
19112;BME280;9688;51.906;8.376;2022-12-08T11:35:01;99843.84;;;5.68;96.77
19112;BME280;9688;51.906;8.376;2022-12-08T11:37:48;99845.50;;;5.72;96.98
19112;BME280;9688;51.906;8.376;2022-12-08T11:40:36;99835.84;;;5.72;96.90
19112;BME280;9688;51.906;8.376;2022-12-08T11:43:28;99843.75;;;5.71;97.28
19112;BME280;9688;51.906;8.376;2022-12-08T11:46:19;99839.44;;;5.70;96.97
19112;BME280;9688;51.906;8.376;2022-12-08T11:49:09;99836.94;;;5.65;97.52
19112;BME280;9688;51.906;8.376;2022-12-08T11:52:00;99830.06;;;5.63;96.93
19112;BME280;9688;51.906;8.376;2022-12-08T11:54:51;99834.47;;;5.61;96.88
19112;BME280;9688;51.906;8.376;2022-12-08T11:57:40;99833.47;;;5.65;97.06
19112;BME280;9688;51.906;8.376;2022-12-08T12:00:26;99831.66;;;5.67;96.81
19112;BME280;9688;51.906;8.376;2022-12-08T12:03:20;99815.78;;;5.71;97.37
19112;BME280;9688;51.906;8.376;2022-12-08T12:06:26;99828.94;;;5.70;96.87
19112;BME280;9688;51.906;8.376;2022-12-08T12:09:18;99820.03;;;5.75;96.88
19112;BME280;9688;51.906;8.376;2022-12-08T12:12:14;99812.06;;;5.78;97.09
19112;BME280;9688;51.906;8.376;2022-12-08T12:15:35;99822.53;;;5.78;96.36
19112;BME280;9688;51.906;8.376;2022-12-08T12:18:31;99814.44;;;5.86;96.80
19112;BME280;9688;51.906;8.376;2022-12-08T12:21:26;99819.69;;;5.86;96.17
19112;BME280;9688;51.906;8.376;2022-12-08T12:24:23;99818.56;;;5.95;96.53
19112;BME280;9688;51.906;8.376;2022-12-08T12:27:22;99818.22;;;6.06;95.83
19112;BME280;9688;51.906;8.376;2022-12-08T12:30:19;99818.09;;;6.09;95.48
19112;BME280;9688;51.906;8.376;2022-12-08T12:33:08;99812.75;;;6.12;95.87
19112;BME280;9688;51.906;8.376;2022-12-08T12:36:02;99818.72;;;6.17;94.95
19112;BME280;9688;51.906;8.376;2022-12-08T12:38:55;99818.41;;;6.26;95.39
19112;BME280;9688;51.906;8.376;2022-12-08T12:41:54;99809.31;;;6.36;94.78
19112;BME280;9688;51.906;8.376;2022-12-08T12:44:42;99817.88;;;6.41;94.68
19112;BME280;9688;51.906;8.376;2022-12-08T12:47:45;99817.88;;;6.41;94.16
19112;BME280;9688;51.906;8.376;2022-12-08T12:50:44;99816.00;;;6.45;94.11
19112;BME280;9688;51.906;8.376;2022-12-08T12:53:48;99817.63;;;6.49;94.21
19112;BME280;9688;51.906;8.376;2022-12-08T12:56:53;99821.16;;;6.48;93.69
19112;BME280;9688;51.906;8.376;2022-12-08T12:59:51;99821.38;;;6.42;93.99
19112;BME280;9688;51.906;8.376;2022-12-08T13:02:56;99825.91;;;6.37;93.51
19112;BME280;9688;51.906;8.376;2022-12-08T13:05:49;99823.59;;;6.28;94.03
19112;BME280;9688;51.906;8.376;2022-12-08T13:08:41;99828.22;;;6.21;94.13
19112;BME280;9688;51.906;8.376;2022-12-08T13:11:49;99816.09;;;6.17;93.86
19112;BME280;9688;51.906;8.376;2022-12-08T13:14:37;99830.22;;;6.13;93.53
19112;BME280;9688;51.906;8.376;2022-12-08T13:17:30;99822.59;;;6.05;93.69
19112;BME280;9688;51.906;8.376;2022-12-08T13:20:20;99824.38;;;6.05;93.62
19112;BME280;9688;51.906;8.376;2022-12-08T13:23:25;99819.25;;;6.01;93.71
19112;BME280;9688;51.906;8.376;2022-12-08T13:26:14;99817.47;;;6.02;93.83
19112;BME280;9688;51.906;8.376;2022-12-08T13:29:19;99815.69;;;6.02;93.24
19112;BME280;9688;51.906;8.376;2022-12-08T13:32:53;99813.28;;;5.96;93.53
19112;BME280;9688;51.906;8.376;2022-12-08T13:35:46;99815.84;;;5.98;93.33
19112;BME280;9688;51.906;8.376;2022-12-08T13:38:34;99815.72;;;6.01;93.60
19112;BME280;9688;51.906;8.376;2022-12-08T13:41:27;99817.50;;;6.00;92.87
19112;BME280;9688;51.906;8.376;2022-12-08T13:44:22;99829.00;;;5.96;93.03
19112;BME280;9688;51.906;8.376;2022-12-08T13:47:15;99822.09;;;5.94;92.87
19112;BME280;9688;51.906;8.376;2022-12-08T13:50:17;99821.28;;;5.90;93.13
19112;BME280;9688;51.906;8.376;2022-12-08T13:53:10;99826.59;;;5.89;93.13
19112;BME280;9688;51.906;8.376;2022-12-08T13:55:59;99822.28;;;5.88;92.68
19112;BME280;9688;51.906;8.376;2022-12-08T13:58:46;99821.28;;;5.90;93.56
19112;BME280;9688;51.906;8.376;2022-12-08T14:01:40;99825.56;;;5.94;93.00
19112;BME280;9688;51.906;8.376;2022-12-08T14:04:27;99822.81;;;5.99;93.15
19112;BME280;9688;51.906;8.376;2022-12-08T14:07:14;99821.06;;;5.98;93.42
19112;BME280;9688;51.906;8.376;2022-12-08T14:10:00;99825.53;;;5.96;92.68
19112;BME280;9688;51.906;8.376;2022-12-08T14:12:54;99828.94;;;5.98;92.79
19112;BME280;9688;51.906;8.376;2022-12-08T14:15:41;99821.06;;;5.98;92.49
19112;BME280;9688;51.906;8.376;2022-12-08T14:18:30;99823.88;;;5.93;92.59
19112;BME280;9688;51.906;8.376;2022-12-08T14:21:16;99823.88;;;5.93;92.37
19112;BME280;9688;51.906;8.376;2022-12-08T14:24:02;99827.34;;;5.92;92.94
19112;BME280;9688;51.906;8.376;2022-12-08T14:26:50;99823.06;;;5.90;92.96
19112;BME280;9688;51.906;8.376;2022-12-08T14:29:42;99820.50;;;5.88;92.57
19112;BME280;9688;51.906;8.376;2022-12-08T14:32:36;99823.16;;;5.87;92.64
19112;BME280;9688;51.906;8.376;2022-12-08T14:35:27;99814.47;;;5.85;92.80
19112;BME280;9688;51.906;8.376;2022-12-08T14:38:15;99824.13;;;5.84;92.80
19112;BME280;9688;51.906;8.376;2022-12-08T14:41:04;99823.25;;;5.84;92.57
19112;BME280;9688;51.906;8.376;2022-12-08T14:43:57;99823.38;;;5.80;92.23
19112;BME280;9688;51.906;8.376;2022-12-08T14:47:02;99821.66;;;5.79;92.97
19112;BME280;9688;51.906;8.376;2022-12-08T14:49:48;99827.00;;;5.76;92.86
19112;BME280;9688;51.906;8.376;2022-12-08T14:52:41;99835.84;;;5.72;93.16
19112;BME280;9688;51.906;8.376;2022-12-08T14:55:33;99839.56;;;5.65;92.51
19112;BME280;9688;51.906;8.376;2022-12-08T14:58:25;99836.16;;;5.63;92.80
19112;BME280;9688;51.906;8.376;2022-12-08T15:01:13;99844.13;;;5.60;93.21
19112;BME280;9688;51.906;8.376;2022-12-08T15:04:08;99834.72;;;5.53;93.03
19112;BME280;9688;51.906;8.376;2022-12-08T15:07:08;99837.34;;;5.53;93.53
19112;BME280;9688;51.906;8.376;2022-12-08T15:10:18;99842.66;;;5.50;93.68
19112;BME280;9688;51.906;8.376;2022-12-08T15:13:19;99832.22;;;5.48;93.79
19112;BME280;9688;51.906;8.376;2022-12-08T15:16:24;99833.97;;;5.48;93.42
19112;BME280;9688;51.906;8.376;2022-12-08T15:19:24;99836.66;;;5.46;92.97
19112;BME280;9688;51.906;8.376;2022-12-08T15:22:16;99827.06;;;5.45;93.73
19112;BME280;9688;51.906;8.376;2022-12-08T15:25:11;99838.47;;;5.44;93.29